Abrela — EAVW — position and weather

sailwx.info

Track history (hours):
 
Tides and Currents Weather Stations Pressure Air Temp Water Temp Dewpoint Dewpoint Depression Visibility Wind Speed Wind Dir Waves Ship Positions

Abrela

Last reported at 2018-Jan-18 01:50 UTC. Time now 2018-Jan-18 16:06 UTC.
Position N 43°36' W 005°40'.

Length 30 m.

MMSI: 224204490.

Date/timePositionNaut miles runAvg speedWind from/ knotsBaromVisibWave heightAir tempDewpointWater temp
2018-Jan-18 01:50N 43°36' W 005°40'3 7.7
2018-Jan-18 01:30N 43°34' W 005°41'1 1.6
2018-Jan-18 01:01N 43°33' W 005°42'0 0.0
2018-Jan-18 00:00N 43°33' W 005°42'0 0.0
2018-Jan-17 23:58N 43°33' W 005°42'  
2018-Jan-12 10:04N 43°43' W 004°55'14 1.7
2018-Jan-12 01:55N 43°49' W 005°13'23 5.1
2018-Jan-11 21:28N 43°36' W 005°38'4 4.4
2018-Jan-11 20:38N 43°33' W 005°42'0 0.0
2018-Jan-11 20:30N 43°33' W 005°42'0 0.0
2018-Jan-11 19:57N 43°33' W 005°42'0 0.0
2018-Jan-11 19:30N 43°33' W 005°42'0 0.0
2018-Jan-11 19:00N 43°33' W 005°42'0 0.0
2018-Jan-11 18:30N 43°33' W 005°42'0 0.0
2018-Jan-11 17:57N 43°33' W 005°42'0 0.0
2018-Jan-11 17:30N 43°33' W 005°42'0 0.0
2018-Jan-11 17:00N 43°33' W 005°42'0 0.0
2018-Jan-11 16:30N 43°33' W 005°42'0 0.0
2018-Jan-11 16:00N 43°33' W 005°42'0 0.0
2018-Jan-11 15:30N 43°33' W 005°42'0 0.0
2018-Jan-11 14:59N 43°33' W 005°42'0 0.0
2018-Jan-11 14:30N 43°33' W 005°42'0 0.0
2018-Jan-11 14:00N 43°33' W 005°42'0 0.0
2018-Jan-11 13:30N 43°33' W 005°42'0 0.0
2018-Jan-11 13:00N 43°33' W 005°42'0 0.0
2018-Jan-11 12:30N 43°33' W 005°42'0 0.0
2018-Jan-11 11:59N 43°33' W 005°42'0 0.0
2018-Jan-11 11:30N 43°33' W 005°42'0 0.0
2018-Jan-11 11:00N 43°33' W 005°42'0 0.0
2018-Jan-11 10:30N 43°33' W 005°42'0 0.0
2018-Jan-11 10:00N 43°33' W 005°42'0 0.0
2018-Jan-11 09:28N 43°33' W 005°42'0 0.0
2018-Jan-11 09:00N 43°33' W 005°42'0 0.0
2018-Jan-11 08:30N 43°33' W 005°42'0 0.0
2018-Jan-11 08:00N 43°33' W 005°42'0 0.0
2018-Jan-11 07:30N 43°33' W 005°42'0 0.0
2018-Jan-11 07:00N 43°33' W 005°42'0 0.0
2018-Jan-11 06:30N 43°33' W 005°42'0 0.0
2018-Jan-11 06:00N 43°33' W 005°42'0 0.0
2018-Jan-11 05:30N 43°33' W 005°42'0 0.0
2018-Jan-11 05:00N 43°33' W 005°42'0 0.0
2018-Jan-11 04:30N 43°33' W 005°42'0 0.0
2018-Jan-11 04:00N 43°33' W 005°42'0 0.0
2018-Jan-11 03:30N 43°33' W 005°42'0 0.0
2018-Jan-11 03:00N 43°33' W 005°42'0 0.0
2018-Jan-11 02:30N 43°33' W 005°42'0 0.0
2018-Jan-11 02:00N 43°33' W 005°42'0 0.0
2018-Jan-11 01:30N 43°33' W 005°42'0 0.0
2018-Jan-11 01:00N 43°33' W 005°42'0 0.0
2018-Jan-11 00:30N 43°33' W 005°42'0 0.0
2018-Jan-10 23:59N 43°33' W 005°42'0 0.0
2018-Jan-10 23:28N 43°33' W 005°42'0 0.0
2018-Jan-10 23:00N 43°33' W 005°42'0 0.0
2018-Jan-10 21:35N 43°33' W 005°42'0 0.0
2018-Jan-10 21:24N 43°33' W 005°42'0 0.0
2018-Jan-10 20:27N 43°33' W 005°42'0 0.0
2018-Jan-10 20:00N 43°33' W 005°42'0 0.0
2018-Jan-10 19:30N 43°33' W 005°42'0 0.1
2018-Jan-10 19:00N 43°33' W 005°42'4 7.7
2018-Jan-10 18:26N 43°35' W 005°36'4 8.2
2018-Jan-10 18:00N 43°37' W 005°32'4 7.2
2018-Jan-10 17:28N 43°39' W 005°27'4 6.9
2018-Jan-10 16:53N 43°40' W 005°22'13 0.7
2018-Jan-09 20:57N 43°35' W 005°39'3 5.5
2018-Jan-09 20:29N 43°33' W 005°42'0 0.0
2018-Jan-09 20:00N 43°33' W 005°42'0 0.0
2018-Jan-09 19:30N 43°33' W 005°42'0 0.0
2018-Jan-09 19:00N 43°33' W 005°42'0 0.1
2018-Jan-09 18:30N 43°33' W 005°42'6 7.9
2018-Jan-09 17:44N 43°35' W 005°34'410.0
2018-Jan-09 17:21N 43°36' W 005°29'17 1.4
2018-Jan-09 04:47N 43°49' W 005°13'26 3.4
2018-Jan-08 20:57N 43°33' W 005°42'2 3.5
2018-Jan-08 20:26N 43°34' W 005°40'3 4.7
2018-Jan-08 19:44N 43°35' W 005°35'1 6.1
2018-Jan-08 19:30N 43°35' W 005°33'5 9.7
2018-Jan-08 19:00N 43°37' W 005°27'5 9.6
2018-Jan-08 18:28N 43°38' W 005°20'5 9.5
2018-Jan-08 18:00N 43°39' W 005°14'10 0.8
2018-Jan-08 05:36N 43°49' W 005°13'0 1.5
2018-Jan-08 05:30N 43°49' W 005°13'  
Track history (hours):
 
Tides and Currents Weather Stations Pressure Air Temp Water Temp Dewpoint Dewpoint Depression Visibility Wind Speed Wind Dir Waves Ship Positions

Abrela

Last reported at 2018-Jan-18 01:50 UTC. Time now 2018-Jan-18 16:06 UTC.
Position N 43°36' W 005°40'.

Length 30 m.

MMSI: 224204490.

Date/timePositionNaut miles runAvg speedWind from/ knotsBaromVisibWave heightAir tempDewpointWater temp
2018-Jan-18 01:50N 43°36' W 005°40'3 7.7
2018-Jan-18 01:30N 43°34' W 005°41'1 1.6
2018-Jan-18 01:01N 43°33' W 005°42'0 0.0
2018-Jan-18 00:00N 43°33' W 005°42'0 0.0
2018-Jan-17 23:58N 43°33' W 005°42'  
2018-Jan-12 10:04N 43°43' W 004°55'14 1.7
2018-Jan-12 01:55N 43°49' W 005°13'23 5.1
2018-Jan-11 21:28N 43°36' W 005°38'4 4.4
2018-Jan-11 20:38N 43°33' W 005°42'0 0.0
2018-Jan-11 20:30N 43°33' W 005°42'0 0.0
2018-Jan-11 19:57N 43°33' W 005°42'0 0.0
2018-Jan-11 19:30N 43°33' W 005°42'0 0.0
2018-Jan-11 19:00N 43°33' W 005°42'0 0.0
2018-Jan-11 18:30N 43°33' W 005°42'0 0.0
2018-Jan-11 17:57N 43°33' W 005°42'0 0.0
2018-Jan-11 17:30N 43°33' W 005°42'0 0.0
2018-Jan-11 17:00N 43°33' W 005°42'0 0.0
2018-Jan-11 16:30N 43°33' W 005°42'0 0.0
2018-Jan-11 16:00N 43°33' W 005°42'0 0.0
2018-Jan-11 15:30N 43°33' W 005°42'0 0.0
2018-Jan-11 14:59N 43°33' W 005°42'0 0.0
2018-Jan-11 14:30N 43°33' W 005°42'0 0.0
2018-Jan-11 14:00N 43°33' W 005°42'0 0.0
2018-Jan-11 13:30N 43°33' W 005°42'0 0.0
2018-Jan-11 13:00N 43°33' W 005°42'0 0.0
2018-Jan-11 12:30N 43°33' W 005°42'0 0.0
2018-Jan-11 11:59N 43°33' W 005°42'0 0.0
2018-Jan-11 11:30N 43°33' W 005°42'0 0.0
2018-Jan-11 11:00N 43°33' W 005°42'0 0.0
2018-Jan-11 10:30N 43°33' W 005°42'0 0.0
2018-Jan-11 10:00N 43°33' W 005°42'0 0.0
2018-Jan-11 09:28N 43°33' W 005°42'0 0.0
2018-Jan-11 09:00N 43°33' W 005°42'0 0.0
2018-Jan-11 08:30N 43°33' W 005°42'0 0.0
2018-Jan-11 08:00N 43°33' W 005°42'0 0.0
2018-Jan-11 07:30N 43°33' W 005°42'0 0.0
2018-Jan-11 07:00N 43°33' W 005°42'0 0.0
2018-Jan-11 06:30N 43°33' W 005°42'0 0.0
2018-Jan-11 06:00N 43°33' W 005°42'0 0.0
2018-Jan-11 05:30N 43°33' W 005°42'0 0.0
2018-Jan-11 05:00N 43°33' W 005°42'0 0.0
2018-Jan-11 04:30N 43°33' W 005°42'0 0.0
2018-Jan-11 04:00N 43°33' W 005°42'0 0.0
2018-Jan-11 03:30N 43°33' W 005°42'0 0.0
2018-Jan-11 03:00N 43°33' W 005°42'0 0.0
2018-Jan-11 02:30N 43°33' W 005°42'0 0.0
2018-Jan-11 02:00N 43°33' W 005°42'0 0.0
2018-Jan-11 01:30N 43°33' W 005°42'0 0.0
2018-Jan-11 01:00N 43°33' W 005°42'0 0.0
2018-Jan-11 00:30N 43°33' W 005°42'0 0.0
2018-Jan-10 23:59N 43°33' W 005°42'0 0.0
2018-Jan-10 23:28N 43°33' W 005°42'0 0.0
2018-Jan-10 23:00N 43°33' W 005°42'0 0.0
2018-Jan-10 21:35N 43°33' W 005°42'0 0.0
2018-Jan-10 21:24N 43°33' W 005°42'0 0.0
2018-Jan-10 20:27N 43°33' W 005°42'0 0.0
2018-Jan-10 20:00N 43°33' W 005°42'0 0.0
2018-Jan-10 19:30N 43°33' W 005°42'0 0.1
2018-Jan-10 19:00N 43°33' W 005°42'4 7.7
2018-Jan-10 18:26N 43°35' W 005°36'4 8.2
2018-Jan-10 18:00N 43°37' W 005°32'4 7.2
2018-Jan-10 17:28N 43°39' W 005°27'4 6.9
2018-Jan-10 16:53N 43°40' W 005°22'13 0.7
2018-Jan-09 20:57N 43°35' W 005°39'3 5.5
2018-Jan-09 20:29N 43°33' W 005°42'0 0.0
2018-Jan-09 20:00N 43°33' W 005°42'0 0.0
2018-Jan-09 19:30N 43°33' W 005°42'0 0.0
2018-Jan-09 19:00N 43°33' W 005°42'0 0.1
2018-Jan-09 18:30N 43°33' W 005°42'6 7.9
2018-Jan-09 17:44N 43°35' W 005°34'410.0
2018-Jan-09 17:21N 43°36' W 005°29'17 1.4
2018-Jan-09 04:47N 43°49' W 005°13'26 3.4
2018-Jan-08 20:57N 43°33' W 005°42'2 3.5
2018-Jan-08 20:26N 43°34' W 005°40'3 4.7
2018-Jan-08 19:44N 43°35' W 005°35'1 6.1
2018-Jan-08 19:30N 43°35' W 005°33'5 9.7
2018-Jan-08 19:00N 43°37' W 005°27'5 9.6
2018-Jan-08 18:28N 43°38' W 005°20'5 9.5
2018-Jan-08 18:00N 43°39' W 005°14'10 0.8
2018-Jan-08 05:36N 43°49' W 005°13'0 1.5
2018-Jan-08 05:30N 43°49' W 005°13'  

Dump ship's entire track history